Time;durP1;ratioP1;P1;durP2;ratioP2;P2;SDS_P1;SDS_P2;PMS_P1;PMS_P2;Temp;Humidity;BMP_temperature;BMP_pressure;BME280_temperature;BME280_humidity;BME280_pressure;Samples;Min_cycle;Max_cycle;Signal;HPM_P1;HPM_P2
2022/01/09 00:04:24;;;;;;;48.17;45.00;;;;;;;5.67;100.00;99861.19;2003990;71;32966;-69
2022/01/09 00:10:10;;;;;;;48.83;45.23;;;;;;;5.58;100.00;99872.48;1991214;70;32880;-68
2022/01/09 00:15:55;;;;;;;47.30;44.30;;;;;;;5.65;100.00;99877.18;2010095;71;32861;-72
2022/01/09 00:21:39;;;;;;;48.97;45.57;;;;;;;5.68;100.00;99880.75;2009454;71;32929;-69
2022/01/09 00:27:24;;;;;;;47.50;44.17;;;;;;;5.61;100.00;99885.14;1962718;72;33480;-68
2022/01/09 00:33:11;;;;;;;47.87;44.57;;;;;;;5.66;100.00;99893.95;2007796;71;32862;-69
2022/01/09 00:38:55;;;;;;;46.33;43.40;;;;;;;5.69;100.00;99905.83;2011412;71;32827;-72
2022/01/09 00:44:39;;;;;;;46.30;43.30;;;;;;;5.66;100.00;99905.80;2011458;71;33301;-69
2022/01/09 00:50:23;;;;;;;46.63;43.50;;;;;;;5.59;100.00;99903.89;2006006;71;34671;-72
2022/01/09 00:56:07;;;;;;;46.50;43.30;;;;;;;5.55;100.00;99900.58;1999060;71;32920;-68
2022/01/09 01:01:52;;;;;;;48.00;44.67;;;;;;;5.65;100.00;99919.30;2010075;71;32772;-72
2022/01/09 01:07:37;;;;;;;45.63;42.53;;;;;;;5.62;100.00;99932.80;2004062;71;32996;-72
2022/01/09 01:13:22;;;;;;;47.40;44.20;;;;;;;5.66;100.00;99944.38;2013363;71;32900;-72
2022/01/09 01:19:06;;;;;;;44.23;41.40;;;;;;;5.59;100.00;99943.00;2012190;71;33278;-70
2022/01/09 01:24:52;;;;;;;46.97;43.83;;;;;;;5.62;100.00;99956.22;2009644;71;33367;-70
2022/01/09 01:30:35;;;;;;;46.10;43.30;;;;;;;5.66;100.00;99958.15;2000500;70;32845;-72
2022/01/09 01:36:21;;;;;;;44.20;41.37;;;;;;;5.67;100.00;99961.73;2016816;71;32840;-68
2022/01/09 01:42:06;;;;;;;43.93;41.20;;;;;;;5.60;100.00;99968.08;2002704;71;32765;-67
2022/01/09 01:48:05;;;;;;;43.57;40.57;;;;;;;5.65;100.00;99966.70;2006536;71;33246;-70
2022/01/09 01:53:45;;;;;;;44.50;41.47;;;;;;;5.65;100.00;99981.86;2014910;71;32850;-72
2022/01/09 01:59:29;;;;;;;45.83;42.67;;;;;;;5.67;100.00;99993.41;1991764;71;32926;-69
2022/01/09 02:05:14;;;;;;;42.93;40.33;;;;;;;5.59;100.00;100000.84;2007932;71;32888;-72
2022/01/09 02:10:59;;;;;;;43.60;40.53;;;;;;;5.58;100.00;100012.41;2016583;71;32924;-71
2022/01/09 02:19:57;;;;;;;45.30;42.00;;;;;;;5.57;100.00;100031.41;2060796;69;32657;-67
2022/01/09 02:22:31;;;;;;;45.10;42.03;;;;;;;5.53;100.00;100044.07;2021774;70;26732;-70
2022/01/09 02:28:18;;;;;;;46.33;43.20;;;;;;;5.44;100.00;100037.43;2016772;71;32892;-71
2022/01/09 02:34:02;;;;;;;48.43;44.83;;;;;;;5.46;100.00;100038.83;2013413;71;32920;-69
2022/01/09 02:39:49;;;;;;;47.07;43.90;;;;;;;5.44;100.00;100038.81;2015004;70;33404;-70
2022/01/09 02:45:34;;;;;;;45.40;42.23;;;;;;;5.41;100.00;100046.24;2003850;71;32941;-69
2022/01/09 02:51:18;;;;;;;46.23;43.23;;;;;;;5.37;100.00;100052.02;2014617;71;32970;-67
2022/01/09 02:57:03;;;;;;;46.97;43.90;;;;;;;5.29;100.00;100057.50;1991489;71;32898;-71
2022/01/09 03:02:47;;;;;;;47.60;44.40;;;;;;;5.28;100.00;100072.36;2002100;71;32912;-72
2022/01/09 03:08:32;;;;;;;47.73;44.53;;;;;;;5.37;100.00;100096.08;2013506;71;32874;-67
2022/01/09 03:14:16;;;;;;;49.43;45.90;;;;;;;5.20;100.00;100088.56;2014680;71;32864;-70
2022/01/09 03:20:02;;;;;;;47.63;44.50;;;;;;;5.31;100.00;100095.77;2009677;71;32852;-68
2022/01/09 03:25:51;;;;;;;47.70;44.27;;;;;;;5.28;100.00;100097.69;2009437;71;33422;-70
2022/01/09 03:31:35;;;;;;;48.50;45.17;;;;;;;5.16;100.00;100119.11;2011374;71;32914;-70
2022/01/09 03:37:19;;;;;;;50.30;46.90;;;;;;;5.11;100.00;100125.41;2014883;71;32922;-68
2022/01/09 03:43:05;;;;;;;49.00;45.60;;;;;;;5.07;100.00;100121.54;1997116;71;33230;-69
2022/01/09 03:48:49;;;;;;;48.93;45.57;;;;;;;4.99;100.00;100122.05;2016543;71;32908;-71
2022/01/09 03:54:36;;;;;;;49.77;46.17;;;;;;;5.17;100.00;100124.36;2009244;71;32841;-67
2022/01/09 04:00:23;;;;;;;50.57;47.23;;;;;;;5.05;100.00;100121.80;2005656;71;34636;-70
2022/01/09 04:06:07;;;;;;;48.57;45.00;;;;;;;5.00;100.00;100122.33;2016503;71;32840;-71
2022/01/09 04:11:55;;;;;;;49.30;45.87;;;;;;;5.02;100.00;100124.25;2005599;71;32843;-67
2022/01/09 04:17:46;;;;;;;49.20;45.83;;;;;;;4.97;100.00;100124.22;2014991;71;33034;-68
2022/01/09 04:23:27;;;;;;;47.63;43.93;;;;;;;4.95;100.00;100114.87;2004377;71;33249;-69
2022/01/09 04:29:11;;;;;;;49.83;46.43;;;;;;;4.92;100.00;100119.51;1950051;72;33339;-69
2022/01/09 04:34:56;;;;;;;49.60;45.57;;;;;;;4.87;100.00;100120.88;2016541;71;32907;-69
2022/01/09 04:40:40;;;;;;;47.20;43.83;;;;;;;4.91;100.00;100130.80;2009394;71;33036;-69
2022/01/09 04:46:31;;;;;;;47.77;44.23;;;;;;;4.96;100.00;100138.52;2005888;71;32837;-71
2022/01/09 04:52:14;;;;;;;47.83;44.53;;;;;;;4.87;100.00;100147.02;2006017;71;32769;-70
2022/01/09 04:58:00;;;;;;;47.60;44.03;;;;;;;4.95;100.00;100160.83;2009368;71;32917;-72
2022/01/09 05:03:43;;;;;;;45.83;42.17;;;;;;;4.86;100.00;100164.61;2000490;71;32779;-69
2022/01/09 05:09:27;;;;;;;47.20;43.33;;;;;;;4.85;100.00;100175.87;2011063;71;32939;-72
2022/01/09 05:15:14;;;;;;;48.07;44.57;;;;;;;4.74;100.00;100182.41;1995206;71;32865;-71
2022/01/09 05:20:58;;;;;;;47.90;44.50;;;;;;;4.64;100.00;100179.02;2007649;71;33292;-67
2022/01/09 05:26:42;;;;;;;49.10;45.63;;;;;;;4.75;100.00;100182.70;2011093;71;32932;-68
2022/01/09 05:32:27;;;;;;;46.37;42.70;;;;;;;4.59;100.00;100194.09;2014984;71;32900;-68
2022/01/09 05:38:14;;;;;;;48.90;45.13;;;;;;;4.56;100.00;100191.34;2011100;71;33355;-70
2022/01/09 05:44:00;;;;;;;48.87;45.23;;;;;;;4.47;100.00;100209.94;2011002;71;33003;-71
2022/01/09 05:49:44;;;;;;;48.63;44.77;;;;;;;4.39;100.00;100216.75;1998737;71;33307;-71
2022/01/09 05:55:29;;;;;;;49.93;46.10;;;;;;;4.39;100.00;100211.80;2015095;71;33331;-71
2022/01/09 06:01:14;;;;;;;49.10;45.40;;;;;;;4.23;100.00;100209.45;2014868;71;32920;-70
2022/01/09 06:06:58;;;;;;;48.93;45.10;;;;;;;3.91;100.00;100217.60;2000535;71;32824;-68
2022/01/09 06:12:42;;;;;;;46.87;43.37;;;;;;;3.93;100.00;100230.55;2013350;71;32804;-69
2022/01/09 06:18:27;;;;;;;48.07;44.03;;;;;;;3.92;100.00;100222.56;2010039;71;33226;-68
2022/01/09 06:24:11;;;;;;;48.90;45.17;;;;;;;3.68;100.00;100233.53;2013691;71;32838;-69
2022/01/09 06:29:55;;;;;;;49.20;45.20;;;;;;;3.70;100.00;100236.84;2016787;70;33022;-67
2022/01/09 06:35:41;;;;;;;49.57;45.80;;;;;;;3.79;100.00;100243.55;2009319;71;32821;-71
2022/01/09 06:41:25;;;;;;;48.50;44.90;;;;;;;3.07;100.00;100238.16;2006057;71;33234;-69
2022/01/09 06:47:09;;;;;;;54.00;50.00;;;;;;;3.47;100.00;100244.22;2000389;71;32748;-69
2022/01/09 06:52:54;;;;;;;49.63;46.10;;;;;;;3.25;100.00;100234.31;2006194;71;33223;-68
2022/01/09 06:58:38;;;;;;;50.07;46.50;;;;;;;3.20;100.00;100259.77;2005559;71;32961;-72
2022/01/09 07:04:22;;;;;;;50.20;46.13;;;;;;;3.25;100.00;100266.70;2016598;71;33359;-70
2022/01/09 07:10:08;;;;;;;48.27;44.53;;;;;;;3.11;100.00;100254.41;2009951;71;33369;-71
2022/01/09 07:15:53;;;;;;;46.93;43.10;;;;;;;3.29;100.00;100276.09;1995108;71;33316;-72
2022/01/09 07:21:38;;;;;;;47.37;43.73;;;;;;;2.94;100.00;100297.47;2016535;70;33007;-71
2022/01/09 07:27:23;;;;;;;47.83;44.40;;;;;;;3.00;100.00;100300.57;1980257;72;33391;-70
2022/01/09 07:33:08;;;;;;;47.70;43.90;;;;;;;2.94;100.00;100307.08;2005530;71;33428;-69
2022/01/09 07:38:53;;;;;;;46.93;43.43;;;;;;;2.64;100.00;100303.26;1994759;71;32914;-72
2022/01/09 07:44:37;;;;;;;49.90;46.20;;;;;;;2.56;100.00;100308.61;2007606;71;33313;-69
2022/01/09 07:50:22;;;;;;;49.60;45.47;;;;;;;2.58;100.00;100311.92;1994608;71;32845;-71
2022/01/09 07:56:07;;;;;;;48.50;44.90;;;;;;;2.61;100.00;100332.55;2007891;70;32852;-72
2022/01/09 08:01:52;;;;;;;47.13;43.40;;;;;;;2.53;100.00;100344.72;2004372;71;33244;-72
2022/01/09 08:07:36;;;;;;;49.80;45.97;;;;;;;2.47;100.00;100352.56;2009680;71;32828;-67
2022/01/09 08:13:22;;;;;;;47.20;43.53;;;;;;;2.23;100.00;100354.53;2000569;71;33317;-69
2022/01/09 08:19:06;;;;;;;46.50;42.83;;;;;;;2.57;100.00;100351.91;2003827;71;32874;-73
2022/01/09 08:24:50;;;;;;;47.00;42.97;;;;;;;2.60;100.00;100353.64;2012867;71;32933;-72
2022/01/09 08:30:35;;;;;;;45.60;41.80;;;;;;;2.50;100.00;100372.63;1998775;71;33282;-73
2022/01/09 08:36:19;;;;;;;46.97;43.13;;;;;;;2.56;100.00;100372.19;2011492;71;32877;-71
2022/01/09 08:42:03;;;;;;;46.47;42.60;;;;;;;2.69;100.00;100378.75;1998758;71;32902;-72
2022/01/09 08:47:48;;;;;;;47.13;43.20;;;;;;;2.80;100.00;100380.59;2000503;71;32973;-70
2022/01/09 08:53:32;;;;;;;48.17;44.23;;;;;;;2.59;100.00;100376.64;2000615;71;33245;-71
2022/01/09 08:59:19;;;;;;;46.73;43.13;;;;;;;2.77;100.00;100374.78;2014897;71;32915;-68
2022/01/09 09:05:06;;;;;;;45.73;41.90;;;;;;;2.77;100.00;100377.52;2013059;71;32908;-67
2022/01/09 09:10:51;;;;;;;46.40;42.43;;;;;;;2.86;100.00;100360.97;2000724;71;32856;-69
2022/01/09 09:16:35;;;;;;;46.00;42.30;;;;;;;3.17;100.00;100362.61;2002345;71;32850;-69
2022/01/09 09:22:19;;;;;;;45.90;42.30;;;;;;;3.41;100.00;100396.77;2007326;71;32966;-68
2022/01/09 09:28:04;;;;;;;45.73;42.13;;;;;;;3.52;100.00;100395.30;2002509;71;32881;-69
2022/01/09 09:33:48;;;;;;;46.77;43.00;;;;;;;3.60;100.00;100394.88;2014699;71;32952;-71
2022/01/09 09:39:32;;;;;;;47.27;43.60;;;;;;;3.66;100.00;100392.52;2014866;71;32939;-72
2022/01/09 09:45:17;;;;;;;46.23;42.73;;;;;;;3.66;100.00;100414.48;2002008;71;33352;-73
2022/01/09 09:51:01;;;;;;;46.03;42.37;;;;;;;3.92;100.00;100420.37;2009416;71;33429;-73
2022/01/09 09:56:45;;;;;;;46.10;42.60;;;;;;;4.02;100.00;100420.53;2004071;71;32966;-72
2022/01/09 10:02:41;;;;;;;46.00;41.80;;;;;;;4.34;100.00;100427.55;2009386;71;32824;-69
2022/01/09 10:08:36;;;;;;;42.40;39.00;;;;;;;4.52;100.00;100421.21;2009363;71;32840;-73
2022/01/09 10:14:32;;;;;;;44.10;40.27;;;;;;;5.08;100.00;100408.09;1998509;71;32834;-73
2022/01/09 10:20:26;;;;;;;42.80;39.07;;;;;;;5.47;100.00;100425.25;2013008;71;32960;-73
2022/01/09 10:26:13;;;;;;;45.07;41.67;;;;;;;5.57;100.00;100423.95;2013048;71;33306;-67
2022/01/09 10:31:58;;;;;;;42.37;38.77;;;;;;;5.81;100.00;100423.88;2014815;71;32833;-69
2022/01/09 10:37:44;;;;;;;43.23;39.90;;;;;;;5.97;100.00;100428.98;2015041;70;33321;-73
2022/01/09 10:43:38;;;;;;;43.13;39.83;;;;;;;6.02;100.00;100419.37;1991539;71;32816;-69
2022/01/09 10:49:23;;;;;;;43.87;40.50;;;;;;;5.98;100.00;100411.35;2005441;71;32848;-68
2022/01/09 10:55:11;;;;;;;41.53;38.77;;;;;;;6.19;100.00;100438.50;1999941;71;32879;-74
2022/01/09 11:01:14;;;;;;;44.27;40.50;;;;;;;6.33;100.00;100428.66;2016288;71;32981;-69
2022/01/09 11:07:01;;;;;;;45.97;42.83;;;;;;;6.42;100.00;100433.13;2003877;71;32992;-73
2022/01/09 11:12:48;;;;;;;49.00;45.63;;;;;;;6.41;100.00;100437.80;2018203;70;32894;-73
2022/01/09 11:18:33;;;;;;;48.60;45.03;;;;;;;6.58;100.00;100437.61;2002575;71;32939;-77
2022/01/09 11:24:40;;;;;;;42.63;39.43;;;;;;;6.65;100.00;100445.08;2007726;71;32948;-79
2022/01/09 11:27:18;;;;;;;43.57;40.73;;;;;;;6.68;100.00;100443.98;1976957;72;26373;-76
2022/01/09 11:29:55;;;;;;;44.57;41.13;;;;;;;6.78;100.00;100441.83;1965051;72;26217;-77
2022/01/09 11:32:32;;;;;;;45.83;42.37;;;;;;;6.83;100.00;100442.69;1957811;72;26376;-81
2022/01/09 11:35:06;;;;;;;44.47;40.93;;;;;;;6.85;100.00;100438.25;1957678;72;26671;-78
2022/01/09 11:37:44;;;;;;;45.57;42.47;;;;;;;6.93;100.00;100423.91;1974400;72;26335;-79
2022/01/09 11:43:53;;;;;;;42.00;39.00;;;;;;;7.09;100.00;100424.81;2004051;71;33367;-74
2022/01/09 11:49:41;;;;;;;44.43;41.40;;;;;;;7.12;100.00;100425.09;1997043;71;32774;-74
2022/01/09 11:55:38;;;;;;;42.10;39.33;;;;;;;7.20;100.00;100441.12;2000858;71;33266;-73
2022/01/09 12:01:37;;;;;;;43.07;40.17;;;;;;;7.09;100.00;100429.78;2014978;71;32859;-71
2022/01/09 12:08:08;;;;;;;41.73;38.73;;;;;;;7.08;100.00;100406.02;2015002;71;32849;-70
2022/01/09 12:13:56;;;;;;;43.43;40.10;;;;;;;7.24;100.00;100413.78;2009284;71;32999;-78
2022/01/09 12:20:05;;;;;;;43.70;41.00;;;;;;;7.33;100.00;100417.66;2002262;71;32926;-78
2022/01/09 12:26:16;;;;;;;38.10;35.60;;;;;;;7.49;100.00;100388.92;2004423;71;32812;-75
2022/01/09 12:32:01;;;;;;;40.93;38.03;;;;;;;7.53;100.00;100389.23;2003978;71;32905;-74
2022/01/09 12:37:52;;;;;;;45.00;41.70;;;;;;;7.61;100.00;100385.91;2009673;71;32956;-70
2022/01/09 12:43:40;;;;;;;42.47;39.40;;;;;;;7.68;100.00;100381.75;2000245;71;33298;-76
2022/01/09 12:49:25;;;;;;;41.87;39.10;;;;;;;7.75;100.00;100389.20;1997083;71;32982;-76
2022/01/09 12:55:13;;;;;;;40.27;37.57;;;;;;;7.76;100.00;100399.70;2002339;71;33461;-76
2022/01/09 13:01:10;;;;;;;42.50;39.23;;;;;;;7.73;100.00;100401.66;2018483;71;33042;-80
2022/01/09 13:06:58;;;;;;;40.80;37.70;;;;;;;7.93;100.00;100398.03;1995011;71;32819;-70
2022/01/09 13:13:01;;;;;;;41.03;38.20;;;;;;;7.99;100.00;100401.91;2018450;71;32922;-71
2022/01/09 13:18:51;;;;;;;39.90;37.17;;;;;;;8.01;100.00;100383.63;2000229;71;32835;-77
2022/01/09 13:24:36;;;;;;;37.10;34.60;;;;;;;8.28;100.00;100376.37;2015103;71;32927;-76
2022/01/09 13:30:22;;;;;;;38.50;36.10;;;;;;;8.42;100.00;100375.54;2009718;71;33333;-73
2022/01/09 13:36:07;;;;;;;38.57;35.83;;;;;;;8.46;100.00;100367.49;2011152;71;32825;-72
2022/01/09 13:41:55;;;;;;;35.73;33.40;;;;;;;8.36;100.00;100377.20;2011232;71;32995;-75
2022/01/09 13:47:46;;;;;;;38.70;36.23;;;;;;;8.37;100.00;100378.32;2013071;71;33385;-72
2022/01/09 13:53:32;;;;;;;41.53;38.93;;;;;;;8.39;100.00;100381.61;2006241;71;33411;-76
2022/01/09 13:59:21;;;;;;;36.23;33.43;;;;;;;8.30;100.00;100387.45;2004037;71;32895;-77
2022/01/09 14:05:15;;;;;;;38.43;35.97;;;;;;;8.31;100.00;100390.50;2004619;71;32809;-76
2022/01/09 14:11:07;;;;;;;37.90;35.20;;;;;;;8.43;100.00;100388.24;2007553;71;32880;-72
2022/01/09 14:16:56;;;;;;;38.60;36.10;;;;;;;8.42;100.00;100391.31;2011445;71;33308;-73
2022/01/09 14:22:56;;;;;;;38.43;35.67;;;;;;;8.25;100.00;100398.53;1996910;71;32779;-74
2022/01/09 14:28:45;;;;;;;41.97;39.10;;;;;;;8.40;100.00;100399.05;2015082;71;33364;-74
2022/01/09 14:34:32;;;;;;;41.17;38.40;;;;;;;8.32;100.00;100410.70;2002825;70;32787;-76
2022/01/09 14:40:26;;;;;;;36.17;33.63;;;;;;;8.22;100.00;100432.27;2003888;71;32891;-76
2022/01/09 14:46:12;;;;;;;41.67;38.77;;;;;;;8.63;100.00;100435.80;2010036;71;32745;-75
2022/01/09 14:51:57;;;;;;;40.17;37.00;;;;;;;8.45;100.00;100431.70;2016585;71;32831;-74
2022/01/09 14:57:42;;;;;;;42.23;39.37;;;;;;;8.62;100.00;100445.20;1996942;71;32861;-75
2022/01/09 15:03:32;;;;;;;43.30;40.37;;;;;;;8.33;100.00;100462.17;1997257;71;32765;-76
2022/01/09 15:09:17;;;;;;;41.10;38.60;;;;;;;8.36;100.00;100464.37;2008018;71;33314;-76
2022/01/09 15:15:02;;;;;;;44.27;41.27;;;;;;;8.06;100.00;100476.28;2017048;71;32907;-77
2022/01/09 15:20:46;;;;;;;46.37;43.10;;;;;;;7.90;100.00;100464.41;2010016;71;33312;-74
2022/01/09 15:26:31;;;;;;;44.30;41.60;;;;;;;7.72;100.00;100483.75;2015050;71;33488;-78
2022/01/09 15:32:16;;;;;;;48.87;45.77;;;;;;;7.70;100.00;100494.83;2016707;71;32827;-77
2022/01/09 15:38:00;;;;;;;54.30;50.70;;;;;;;7.38;100.00;100495.58;2007714;71;32924;-74
2022/01/09 15:43:44;;;;;;;50.93;47.63;;;;;;;7.29;100.00;100497.50;1998957;71;32769;-74
2022/01/09 15:49:29;;;;;;;55.03;51.43;;;;;;;7.19;100.00;100508.50;2016911;71;33007;-73
2022/01/09 15:55:14;;;;;;;52.10;48.50;;;;;;;7.36;100.00;100515.77;2008273;71;33267;-70
2022/01/09 16:00:59;;;;;;;54.60;50.77;;;;;;;7.24;100.00;100531.17;2015062;71;33385;-71
2022/01/09 16:06:43;;;;;;;56.37;52.63;;;;;;;7.03;100.00;100533.03;2016667;71;33195;-73
2022/01/09 16:12:27;;;;;;;57.63;53.37;;;;;;;7.10;100.00;100522.55;2016844;71;32839;-70
2022/01/09 16:18:12;;;;;;;52.10;48.10;;;;;;;7.18;100.00;100535.03;2009266;71;33389;-71
2022/01/09 16:23:56;;;;;;;56.77;53.07;;;;;;;7.06;100.00;100543.53;2004161;71;33287;-72
2022/01/09 16:29:40;;;;;;;54.13;50.30;;;;;;;6.83;100.00;100552.27;2015008;71;32826;-72
2022/01/09 16:35:27;;;;;;;57.57;53.40;;;;;;;6.76;100.00;100547.55;2018473;71;32898;-71
2022/01/09 16:41:12;;;;;;;52.07;47.93;;;;;;;6.22;100.00;100549.64;2010920;71;32819;-73
2022/01/09 16:46:57;;;;;;;52.57;48.47;;;;;;;6.30;100.00;100562.94;2012961;71;32815;-73
2022/01/09 16:52:42;;;;;;;53.60;49.13;;;;;;;6.05;100.00;100572.39;1991457;71;32887;-72
2022/01/09 16:58:28;;;;;;;54.67;50.47;;;;;;;6.10;100.00;100598.09;2009398;71;32943;-74
2022/01/09 17:04:13;;;;;;;56.63;52.47;;;;;;;6.16;100.00;100600.35;2013347;71;32854;-71
2022/01/09 17:09:59;;;;;;;57.00;52.67;;;;;;;6.21;100.00;100612.78;2004389;71;32818;-74
2022/01/09 17:15:43;;;;;;;59.13;54.47;;;;;;;6.21;100.00;100623.81;1997120;71;32826;-74
2022/01/09 17:21:27;;;;;;;55.00;50.47;;;;;;;6.19;100.00;100633.74;1991656;71;33371;-74
2022/01/09 17:27:12;;;;;;;53.70;49.37;;;;;;;6.05;100.00;100625.61;1991670;71;33296;-71
2022/01/09 17:32:58;;;;;;;59.13;54.40;;;;;;;6.13;100.00;100638.08;2009450;71;32928;-74
2022/01/09 17:38:45;;;;;;;54.63;50.37;;;;;;;6.02;100.00;100645.98;2004820;71;32759;-75
2022/01/09 17:44:29;;;;;;;63.10;57.60;;;;;;;6.06;100.00;100649.88;2006516;71;33220;-74
2022/01/09 17:50:14;;;;;;;64.50;58.97;;;;;;;6.08;100.00;100656.78;2004120;71;33026;-75
2022/01/09 17:55:59;;;;;;;62.63;57.20;;;;;;;6.16;100.00;100667.91;1991652;71;32897;-74
2022/01/09 18:01:45;;;;;;;62.23;57.37;;;;;;;6.02;100.00;100682.66;2011022;71;32892;-72
2022/01/09 18:07:29;;;;;;;62.77;57.97;;;;;;;5.76;100.00;100687.55;2000784;71;32744;-73
2022/01/09 18:13:13;;;;;;;58.13;52.97;;;;;;;5.65;100.00;100686.58;2003971;71;33349;-71
2022/01/09 18:18:57;;;;;;;57.87;53.10;;;;;;;5.55;100.00;100696.66;2011641;71;33347;-72
2022/01/09 18:24:42;;;;;;;56.27;51.43;;;;;;;5.71;100.00;100704.02;2011174;71;32817;-73
2022/01/09 18:30:26;;;;;;;54.43;50.20;;;;;;;5.38;100.00;100715.45;2016707;71;32797;-70
2022/01/09 18:36:10;;;;;;;55.80;51.10;;;;;;;4.74;100.00;100732.63;2004265;71;33294;-73
2022/01/09 18:41:55;;;;;;;56.30;51.20;;;;;;;4.86;100.00;100747.13;2000185;71;32863;-72
2022/01/09 18:47:40;;;;;;;54.67;50.43;;;;;;;4.80;100.00;100758.59;2014945;70;32979;-71
2022/01/09 18:53:26;;;;;;;55.77;51.07;;;;;;;4.84;100.00;100762.51;1996873;71;32779;-71
2022/01/09 18:59:10;;;;;;;60.13;55.33;;;;;;;4.66;100.00;100764.68;1984418;71;32775;-73
2022/01/09 19:04:54;;;;;;;61.60;56.33;;;;;;;4.93;100.00;100783.03;2013005;71;32926;-75
2022/01/09 19:10:43;;;;;;;64.53;59.57;;;;;;;5.02;100.00;100788.95;2009766;71;32871;-74
2022/01/09 19:16:26;;;;;;;57.80;53.03;;;;;;;4.88;100.00;100802.20;2002561;71;33399;-74
2022/01/09 19:22:10;;;;;;;55.03;50.43;;;;;;;4.65;100.00;100808.40;2006547;71;32870;-77
2022/01/09 19:27:59;;;;;;;55.80;50.90;;;;;;;4.32;100.00;100809.97;2013466;71;33347;-76
2022/01/09 19:33:44;;;;;;;55.63;50.53;;;;;;;4.08;100.00;100824.88;2008277;70;32931;-77
2022/01/09 19:39:28;;;;;;;52.93;48.70;;;;;;;3.98;100.00;100836.48;2009493;71;32974;-71
2022/01/09 19:45:14;;;;;;;54.33;49.83;;;;;;;3.96;100.00;100836.44;1998950;70;32896;-76
2022/01/09 19:51:00;;;;;;;54.63;50.23;;;;;;;3.91;100.00;100852.28;2016870;70;32826;-76
2022/01/09 19:56:44;;;;;;;55.17;50.37;;;;;;;4.08;100.00;100857.86;2002338;71;33347;-72
2022/01/09 20:02:29;;;;;;;55.77;50.83;;;;;;;4.25;100.00;100862.05;1995245;71;32870;-69
2022/01/09 20:08:13;;;;;;;53.70;48.73;;;;;;;3.98;100.00;100870.03;2016575;71;32835;-74
2022/01/09 20:13:59;;;;;;;58.70;53.50;;;;;;;3.96;100.00;100874.37;1990970;71;33234;-74
2022/01/09 20:19:43;;;;;;;54.97;50.27;;;;;;;3.46;100.00;100874.59;2011464;71;33304;-71
2022/01/09 20:25:30;;;;;;;53.37;48.83;;;;;;;3.26;100.00;100873.53;2011806;71;32897;-73
2022/01/09 20:31:18;;;;;;;55.27;50.67;;;;;;;3.14;100.00;100887.25;2013144;71;32934;-72
2022/01/09 20:37:03;;;;;;;54.27;49.37;;;;;;;3.17;100.00;100890.05;2014701;71;32827;-72
2022/01/09 20:42:48;;;;;;;55.10;50.17;;;;;;;3.33;100.00;100888.00;2015029;71;33332;-72
2022/01/09 20:48:34;;;;;;;55.13;50.17;;;;;;;3.14;100.00;100898.76;2011646;71;33245;-69
2022/01/09 20:54:19;;;;;;;62.20;56.97;;;;;;;2.91;100.00;100930.26;2007672;71;32812;-70
2022/01/09 21:00:05;;;;;;;63.43;58.13;;;;;;;3.05;100.00;100944.91;2003954;71;32806;-74
2022/01/09 21:05:50;;;;;;;63.00;57.83;;;;;;;3.14;100.00;100940.77;2011813;71;33236;-75
2022/01/09 21:11:35;;;;;;;64.63;59.20;;;;;;;2.98;100.00;100943.34;2006243;71;32809;-71
2022/01/09 21:17:21;;;;;;;70.10;63.27;;;;;;;2.97;100.00;100948.52;2011784;71;32766;-75
2022/01/09 21:23:09;;;;;;;62.37;57.13;;;;;;;3.24;100.00;100966.28;2005952;71;32902;-74
2022/01/09 21:28:55;;;;;;;65.27;60.07;;;;;;;2.82;100.00;100964.56;2011793;71;32818;-75
2022/01/09 21:34:40;;;;;;;62.40;57.33;;;;;;;2.72;100.00;100963.73;1997175;71;32869;-75
2022/01/09 21:40:25;;;;;;;61.57;56.33;;;;;;;2.63;100.00;100973.34;2013620;71;32746;-72
2022/01/09 21:46:09;;;;;;;57.63;52.93;;;;;;;2.46;100.00;100986.84;2005805;71;34607;-71
2022/01/09 21:51:55;;;;;;;57.70;52.30;;;;;;;2.35;100.00;100978.02;2006181;71;33236;-74
2022/01/09 21:57:39;;;;;;;60.40;55.40;;;;;;;2.33;100.00;100975.18;2011014;71;32791;-72
2022/01/09 22:03:25;;;;;;;57.07;52.47;;;;;;;2.25;100.00;100990.03;2004167;71;33280;-71
2022/01/09 22:09:09;;;;;;;58.83;53.67;;;;;;;2.53;100.00;101005.94;2014717;71;32897;-73
2022/01/09 22:14:54;;;;;;;55.57;50.90;;;;;;;2.55;100.00;101012.05;2018455;71;33413;-71
2022/01/09 22:20:39;;;;;;;60.47;55.33;;;;;;;2.58;100.00;101013.79;2004099;71;32811;-70
2022/01/09 22:26:23;;;;;;;58.60;53.00;;;;;;;2.44;100.00;101033.37;1995121;71;32871;-71
2022/01/09 22:32:09;;;;;;;55.83;50.93;;;;;;;2.56;100.00;101057.07;2009405;70;33427;-70
2022/01/09 22:37:54;;;;;;;56.93;51.67;;;;;;;2.41;100.00;101068.91;2002805;71;33325;-69
2022/01/09 22:43:41;;;;;;;56.70;51.40;;;;;;;2.09;100.00;101078.30;1998277;71;32843;-70
2022/01/09 22:49:25;;;;;;;52.97;48.23;;;;;;;2.28;100.00;101094.55;2013342;71;33158;-71
2022/01/09 22:55:11;;;;;;;56.73;51.73;;;;;;;2.48;100.00;101107.25;2000491;71;33410;-72
2022/01/09 23:00:55;;;;;;;55.43;50.43;;;;;;;2.68;100.00;101105.98;2015148;71;33354;-69
2022/01/09 23:06:43;;;;;;;53.60;48.33;;;;;;;2.82;100.00;101092.12;2017003;71;32834;-70
2022/01/09 23:12:28;;;;;;;52.60;47.90;;;;;;;2.87;100.00;101093.65;2009201;71;32940;-71
2022/01/09 23:18:12;;;;;;;54.40;49.27;;;;;;;2.90;100.00;101115.13;2000158;71;32940;-72
2022/01/09 23:23:56;;;;;;;55.73;50.60;;;;;;;2.82;100.00;101124.50;2016917;71;33273;-72
2022/01/09 23:29:40;;;;;;;56.33;51.50;;;;;;;2.97;100.00;101129.59;2013065;71;32898;-72
2022/01/09 23:35:27;;;;;;;52.63;48.13;;;;;;;3.03;100.00;101136.93;1991949;71;32941;-70
2022/01/09 23:37:59;;;;;;;54.37;49.57;;;;;;;2.98;100.00;101147.22;1967859;72;26225;-71
2022/01/09 23:43:43;;;;;;;55.40;50.30;;;;;;;3.24;100.00;101147.97;1997045;71;32780;-68
2022/01/09 23:55:32;;;;;;;56.73;51.77;;;;;;;3.04;100.00;101156.42;2013363;71;33315;-71
